createdAt,value
2022-10-04T00:00:54.553Z,35
2022-10-04T00:02:54.602Z,32
2022-10-04T00:05:54.579Z,39
2022-10-04T00:08:54.566Z,35
2022-10-04T00:10:54.555Z,31
2022-10-04T00:12:54.563Z,30
2022-10-04T00:14:54.560Z,33
2022-10-04T00:16:54.631Z,34
2022-10-04T00:19:54.533Z,29
2022-10-04T00:21:54.573Z,35
2022-10-04T00:24:54.527Z,31
2022-10-04T00:27:54.570Z,30
2022-10-04T00:29:54.616Z,31
2022-10-04T00:32:54.577Z,31
2022-10-04T00:35:54.583Z,31
2022-10-04T00:38:54.549Z,29
2022-10-04T00:41:54.562Z,34
2022-10-04T00:44:54.566Z,32
2022-10-04T00:46:54.559Z,33
2022-10-04T00:49:54.554Z,32
2022-10-04T00:52:54.535Z,30
2022-10-04T00:55:54.544Z,29
2022-10-04T00:57:54.532Z,30
2022-10-04T01:00:54.595Z,32
2022-10-04T01:02:54.553Z,28
2022-10-04T01:05:54.554Z,34
2022-10-04T01:08:54.553Z,31
2022-10-04T01:10:54.540Z,32
2022-10-04T01:12:54.559Z,33
2022-10-04T01:14:54.573Z,30
2022-10-04T01:17:54.568Z,33
2022-10-04T01:19:54.574Z,30
2022-10-04T01:21:54.596Z,30
2022-10-04T01:24:54.545Z,36
2022-10-04T01:26:54.578Z,33
2022-10-04T01:28:54.568Z,30
2022-10-04T01:31:54.658Z,31
2022-10-04T01:33:54.574Z,32
2022-10-04T01:36:54.562Z,28
2022-10-04T01:39:54.575Z,28
2022-10-04T01:42:54.570Z,29
2022-10-04T01:44:55.632Z,28
2022-10-04T01:47:54.620Z,31
2022-10-04T01:49:54.588Z,29
2022-10-04T01:52:54.540Z,29
2022-10-04T01:54:54.576Z,30
2022-10-04T01:56:54.584Z,28
2022-10-04T01:59:54.579Z,27
2022-10-04T02:01:54.611Z,27
2022-10-04T02:04:54.737Z,29
2022-10-04T02:07:54.620Z,27
2022-10-04T02:10:54.601Z,28
2022-10-04T02:12:54.568Z,26
2022-10-04T02:15:54.679Z,29
2022-10-04T02:18:54.573Z,29
2022-10-04T02:21:54.555Z,29
2022-10-04T02:23:54.581Z,27
2022-10-04T02:25:54.585Z,25
2022-10-04T02:27:54.630Z,28
2022-10-04T02:30:54.644Z,26
2022-10-04T02:32:54.591Z,29
2022-10-04T02:35:54.633Z,28
2022-10-04T02:38:54.578Z,28
2022-10-04T02:40:54.580Z,28
2022-10-04T02:42:54.594Z,31
2022-10-04T02:45:54.600Z,28
2022-10-04T02:47:54.607Z,27
2022-10-04T02:50:54.585Z,28
2022-10-04T02:52:54.581Z,27
2022-10-04T02:55:54.568Z,26
2022-10-04T02:57:54.592Z,26
2022-10-04T02:59:54.573Z,26
2022-10-04T03:01:54.670Z,30
2022-10-04T03:04:54.558Z,24
2022-10-04T03:07:54.607Z,24
2022-10-04T03:10:54.571Z,22
2022-10-04T03:12:54.583Z,26
2022-10-04T03:15:54.655Z,23
2022-10-04T03:17:54.601Z,27
2022-10-04T03:20:54.576Z,25
2022-10-04T03:23:54.558Z,23
2022-10-04T03:26:54.595Z,22
2022-10-04T03:28:54.593Z,26
2022-10-04T03:31:54.577Z,27
2022-10-04T03:33:54.585Z,23
2022-10-04T03:36:54.586Z,22
2022-10-04T03:39:54.635Z,21
2022-10-04T03:42:54.562Z,27
2022-10-04T03:44:54.580Z,27
2022-10-04T03:47:54.592Z,26
2022-10-04T03:50:54.593Z,27
2022-10-04T03:53:54.623Z,28
2022-10-04T03:55:54.604Z,25
2022-10-04T03:58:54.551Z,22
2022-10-04T04:00:54.660Z,29
2022-10-04T04:03:54.593Z,22
2022-10-04T04:06:54.623Z,22
2022-10-04T04:09:54.609Z,21
2022-10-04T04:12:54.576Z,20
2022-10-04T04:14:54.611Z,19
2022-10-04T04:17:54.661Z,17
2022-10-04T04:20:54.603Z,19
2022-10-04T04:22:54.658Z,18
2022-10-04T04:25:54.570Z,22
2022-10-04T04:28:54.661Z,17
2022-10-04T04:31:54.631Z,24
2022-10-04T04:34:54.615Z,23
2022-10-04T04:37:54.564Z,23
2022-10-04T04:39:54.586Z,29
2022-10-04T04:42:54.642Z,28
2022-10-04T04:46:08.830Z,25
2022-10-04T04:47:54.556Z,23
2022-10-04T04:49:54.597Z,22
2022-10-04T04:52:54.575Z,18
2022-10-04T04:54:54.614Z,22
2022-10-04T04:56:54.680Z,19
2022-10-04T04:58:54.611Z,22
2022-10-04T05:01:54.626Z,20
2022-10-04T05:04:54.580Z,27
2022-10-04T05:06:54.602Z,23
2022-10-04T05:08:54.627Z,21
2022-10-04T05:11:54.551Z,24
2022-10-04T05:13:54.571Z,25
2022-10-04T05:16:54.722Z,21
2022-10-04T05:18:54.608Z,18
2022-10-04T05:21:54.595Z,20
2022-10-04T05:24:54.603Z,19
2022-10-04T05:26:54.630Z,22
2022-10-04T05:29:54.596Z,18
2022-10-04T05:32:54.587Z,20
2022-10-04T05:34:54.597Z,21
2022-10-04T05:36:54.880Z,21
2022-10-04T05:39:54.555Z,20
2022-10-04T05:41:54.569Z,22
2022-10-04T05:44:54.579Z,27
2022-10-04T05:47:54.572Z,20
2022-10-04T05:50:54.592Z,18
2022-10-04T05:53:54.571Z,18
2022-10-04T05:55:54.586Z,18
2022-10-04T05:58:54.613Z,16
2022-10-04T06:01:54.675Z,18
2022-10-04T06:04:54.601Z,18
2022-10-04T06:06:54.584Z,16
2022-10-04T06:08:54.610Z,19
2022-10-04T06:11:54.565Z,20
2022-10-04T06:13:54.566Z,19
2022-10-04T06:16:54.700Z,19
2022-10-04T06:19:54.585Z,19
2022-10-04T06:22:54.616Z,15
2022-10-04T06:25:54.594Z,20
2022-10-04T06:27:54.623Z,15
2022-10-04T06:30:54.635Z,20
2022-10-04T06:32:54.598Z,16
2022-10-04T06:35:54.593Z,16
2022-10-04T06:38:54.614Z,15
2022-10-04T06:41:54.575Z,22
2022-10-04T06:44:54.630Z,18
2022-10-04T06:47:54.561Z,21
2022-10-04T06:49:54.577Z,17
2022-10-04T06:51:54.576Z,18
2022-10-04T06:54:54.598Z,17
2022-10-04T06:56:55.025Z,16
2022-10-04T06:59:54.571Z,18
2022-10-04T07:01:54.578Z,18
2022-10-04T07:03:54.589Z,19
2022-10-04T07:06:54.606Z,28
2022-10-04T07:08:54.640Z,26
2022-10-04T07:11:54.574Z,28
2022-10-04T07:13:54.569Z,22
2022-10-04T07:15:54.590Z,24
2022-10-04T07:18:54.563Z,20
2022-10-04T07:20:54.620Z,23
2022-10-04T07:23:54.571Z,22
2022-10-04T07:25:54.563Z,27
2022-10-04T07:28:54.719Z,24
2022-10-04T07:31:54.575Z,24
2022-10-04T07:33:54.598Z,21
2022-10-04T07:35:54.595Z,22
2022-10-04T07:38:54.580Z,23
2022-10-04T07:41:54.580Z,20
2022-10-04T07:43:55.711Z,20
2022-10-04T07:46:54.605Z,25
2022-10-04T07:49:54.586Z,30
2022-10-04T07:51:54.590Z,34
2022-10-04T07:54:54.606Z,34
2022-10-04T07:57:54.592Z,32
2022-10-04T07:59:54.599Z,38
2022-10-04T08:02:54.661Z,38
2022-10-04T08:04:54.571Z,41
2022-10-04T08:07:54.606Z,41
2022-10-04T08:10:57.241Z,39
2022-10-04T08:12:54.663Z,39
2022-10-04T08:15:54.642Z,46
2022-10-04T08:18:54.660Z,55
2022-10-04T08:21:54.598Z,52
2022-10-04T08:24:54.609Z,55
2022-10-04T08:27:54.699Z,54
2022-10-04T08:30:54.695Z,62
2022-10-04T08:33:54.626Z,59
2022-10-04T08:35:54.615Z,71
2022-10-04T08:38:54.599Z,64
2022-10-04T08:40:54.611Z,67
2022-10-04T08:43:54.607Z,68
2022-10-04T08:46:54.642Z,58
2022-10-04T08:49:54.578Z,63
2022-10-04T08:51:54.672Z,63
2022-10-04T08:54:54.603Z,59
2022-10-04T08:56:54.593Z,54
2022-10-04T08:59:54.614Z,55
2022-10-04T09:02:54.642Z,52
2022-10-04T09:04:54.606Z,56
2022-10-04T09:06:54.594Z,51
2022-10-04T09:08:54.619Z,54
2022-10-04T09:11:54.631Z,57
2022-10-04T09:14:54.612Z,53
2022-10-04T09:16:54.618Z,54
2022-10-04T09:19:54.637Z,54
2022-10-04T09:22:54.618Z,67
2022-10-04T09:25:54.644Z,58
2022-10-04T09:27:55.337Z,58
2022-10-04T09:33:54.636Z,60
2022-10-04T09:36:54.607Z,61
2022-10-04T09:39:06.044Z,55
2022-10-04T09:41:54.632Z,54
2022-10-04T09:44:54.603Z,68
2022-10-04T09:47:54.616Z,60
2022-10-04T09:50:54.612Z,63
2022-10-04T09:52:54.680Z,62
2022-10-04T09:55:54.644Z,58
2022-10-04T09:59:01.783Z,52
2022-10-04T10:01:54.690Z,51
2022-10-04T10:03:54.583Z,51
2022-10-04T10:06:54.627Z,55
2022-10-04T10:08:54.641Z,41
2022-10-04T10:11:54.625Z,35
2022-10-04T10:14:54.642Z,28
2022-10-04T10:17:54.682Z,45
2022-10-04T10:20:54.614Z,53
2022-10-04T10:22:54.688Z,51
2022-10-04T10:25:04.893Z,57
2022-10-04T10:27:54.644Z,32
2022-10-04T10:30:54.639Z,45
2022-10-04T10:32:54.607Z,47
2022-10-04T10:35:54.616Z,49
2022-10-04T10:38:54.601Z,40
2022-10-04T10:40:54.630Z,47
2022-10-04T10:43:54.594Z,54
2022-10-04T10:45:54.622Z,51
2022-10-04T10:47:54.598Z,47
2022-10-04T10:50:54.641Z,50
2022-10-04T10:52:54.953Z,49
2022-10-04T10:55:54.623Z,45
2022-10-04T10:58:54.634Z,46
2022-10-04T11:01:54.852Z,32
2022-10-04T11:03:54.773Z,41
2022-10-04T11:06:54.615Z,43
2022-10-04T11:08:54.620Z,39
2022-10-04T11:10:54.647Z,25
2022-10-04T11:13:54.616Z,33
2022-10-04T11:15:54.659Z,41
2022-10-04T11:18:54.653Z,35
2022-10-04T11:21:54.614Z,36
2022-10-04T11:23:54.640Z,34
2022-10-04T11:26:54.642Z,39
2022-10-04T11:29:54.615Z,41
2022-10-04T11:32:54.631Z,46
2022-10-04T11:35:54.669Z,49
2022-10-04T11:37:54.650Z,40
2022-10-04T11:40:54.635Z,39
2022-10-04T11:42:54.666Z,26
2022-10-04T11:44:55.160Z,38
2022-10-04T11:47:54.654Z,42
2022-10-04T11:49:54.636Z,42
2022-10-04T11:52:54.698Z,42
2022-10-04T11:55:54.605Z,42
2022-10-04T11:57:54.637Z,42
2022-10-04T12:00:54.652Z,46
2022-10-04T12:03:54.716Z,46
2022-10-04T12:06:54.644Z,32
2022-10-04T12:09:58.719Z,42
2022-10-04T12:12:54.670Z,43
2022-10-04T12:15:54.660Z,40
2022-10-04T12:18:54.688Z,36
2022-10-04T12:20:55.353Z,35
2022-10-04T12:23:54.605Z,28
2022-10-04T12:25:54.648Z,43
2022-10-04T12:28:54.651Z,38
2022-10-04T12:31:54.711Z,42
2022-10-04T12:34:54.656Z,40
2022-10-04T12:36:54.643Z,45
2022-10-04T12:39:54.607Z,37
2022-10-04T12:41:54.642Z,33
2022-10-04T12:44:54.605Z,40
2022-10-04T12:47:54.624Z,41
2022-10-04T12:49:54.633Z,28
2022-10-04T12:52:54.702Z,37
2022-10-04T12:55:54.625Z,35
2022-10-04T12:57:54.662Z,35
2022-10-04T13:00:56.781Z,34
2022-10-04T13:03:54.632Z,29
2022-10-04T13:05:54.627Z,31
2022-10-04T13:07:54.672Z,28
2022-10-04T13:10:54.632Z,21
2022-10-04T13:12:54.645Z,28
2022-10-04T13:18:54.662Z,18
2022-10-04T13:21:54.637Z,26
2022-10-04T13:23:54.642Z,28
2022-10-04T13:26:54.641Z,29
2022-10-04T13:28:54.642Z,29
2022-10-04T13:31:54.742Z,29
2022-10-04T13:34:54.666Z,24
2022-10-04T13:37:54.655Z,26
2022-10-04T13:40:54.661Z,23
2022-10-04T13:43:54.639Z,24
2022-10-04T13:45:54.687Z,25
2022-10-04T13:48:54.627Z,25
2022-10-04T13:50:54.659Z,24
2022-10-04T13:52:54.651Z,26
2022-10-04T13:54:55.730Z,26
2022-10-04T13:57:54.707Z,21
2022-10-04T14:00:54.677Z,23
2022-10-04T14:02:54.676Z,21
2022-10-04T14:05:54.702Z,19
2022-10-04T14:07:54.702Z,27
2022-10-04T14:10:54.730Z,23
2022-10-04T14:13:54.673Z,24
2022-10-04T14:16:54.731Z,20
2022-10-04T14:18:54.691Z,23
2022-10-04T14:21:54.669Z,23
2022-10-04T14:23:54.717Z,22
2022-10-04T14:26:54.663Z,22
2022-10-04T14:28:54.667Z,24
2022-10-04T14:30:54.658Z,23
2022-10-04T14:32:54.670Z,26
2022-10-04T14:34:54.649Z,19
2022-10-04T14:37:54.692Z,21
2022-10-04T14:40:54.646Z,22
2022-10-04T14:42:54.685Z,22
2022-10-04T14:45:54.692Z,24
2022-10-04T14:47:54.683Z,26
2022-10-04T14:49:57.895Z,24
2022-10-04T14:52:54.677Z,29
2022-10-04T14:54:54.663Z,25
2022-10-04T14:57:54.661Z,31
2022-10-04T14:59:54.693Z,21
2022-10-04T15:01:55.303Z,22
2022-10-04T15:04:54.724Z,21
2022-10-04T15:07:54.699Z,23
2022-10-04T15:10:54.685Z,23
2022-10-04T15:14:54.663Z,23
2022-10-04T15:17:54.702Z,23
2022-10-04T15:20:54.672Z,23
2022-10-04T15:22:54.694Z,21
2022-10-04T15:24:54.752Z,22
2022-10-04T15:27:54.749Z,21
2022-10-04T15:30:54.697Z,20
2022-10-04T15:33:54.694Z,21
2022-10-04T15:35:54.720Z,23
2022-10-04T15:38:54.699Z,19
2022-10-04T15:41:54.672Z,22
2022-10-04T15:43:54.679Z,21
2022-10-04T15:45:57.314Z,24
2022-10-04T15:47:54.746Z,25
2022-10-04T15:49:54.753Z,21
2022-10-04T15:52:54.731Z,20
2022-10-04T15:55:54.727Z,20
2022-10-04T15:58:54.730Z,21
2022-10-04T16:00:54.808Z,23
2022-10-04T16:03:54.663Z,21
2022-10-04T16:05:54.699Z,21
2022-10-04T16:08:54.726Z,25
2022-10-04T16:11:54.663Z,20
2022-10-04T16:13:54.685Z,20
2022-10-04T16:15:54.726Z,23
2022-10-04T16:17:54.690Z,20
2022-10-04T16:20:54.762Z,21
2022-10-04T16:23:54.682Z,21
2022-10-04T16:25:54.710Z,23
2022-10-04T16:28:54.728Z,21
2022-10-04T16:31:54.700Z,22
2022-10-04T16:34:54.732Z,21
2022-10-04T16:36:54.757Z,24
2022-10-04T16:39:54.842Z,23
2022-10-04T16:41:54.801Z,19
2022-10-04T16:45:54.752Z,24
2022-10-04T16:48:54.747Z,28
2022-10-04T16:51:26.913Z,25
2022-10-04T16:53:54.715Z,35
2022-10-04T16:56:54.807Z,37
2022-10-04T16:59:54.678Z,45
2022-10-04T17:02:54.746Z,46
2022-10-04T17:04:54.749Z,53
2022-10-04T17:07:54.729Z,48
2022-10-04T17:10:54.756Z,56
2022-10-04T17:13:56.781Z,50
2022-10-04T17:16:54.755Z,49
2022-10-04T17:19:54.763Z,47
2022-10-04T17:22:54.749Z,50
2022-10-04T17:24:54.722Z,45
2022-10-04T17:27:54.796Z,49
2022-10-04T17:30:54.762Z,43
2022-10-04T17:33:54.715Z,45
2022-10-04T17:35:54.732Z,45
2022-10-04T17:38:54.788Z,43
2022-10-04T17:41:54.700Z,42
2022-10-04T17:43:54.712Z,38
2022-10-04T17:45:54.726Z,36
2022-10-04T17:47:54.698Z,35
2022-10-04T17:49:54.742Z,36
2022-10-04T17:52:54.739Z,38
2022-10-04T17:55:54.725Z,36
2022-10-04T17:57:54.708Z,37
2022-10-04T18:00:54.742Z,33
2022-10-04T18:02:54.845Z,33
2022-10-04T18:05:54.712Z,30
2022-10-04T18:08:54.786Z,27
2022-10-04T18:11:54.711Z,28
2022-10-04T18:13:54.717Z,27
2022-10-04T18:16:54.705Z,33
2022-10-04T18:18:54.748Z,33
2022-10-04T18:21:54.713Z,31
2022-10-04T18:24:54.736Z,28
2022-10-04T18:26:56.682Z,28
2022-10-04T18:29:54.736Z,30
2022-10-04T18:32:54.735Z,31
2022-10-04T18:34:54.752Z,30
2022-10-04T18:36:54.796Z,30
2022-10-04T18:39:55.710Z,31
2022-10-04T18:41:54.749Z,34
2022-10-04T18:44:54.780Z,33
2022-10-04T18:46:54.836Z,31
2022-10-04T18:49:54.729Z,33
2022-10-04T18:51:54.727Z,34
2022-10-04T18:53:54.775Z,28
2022-10-04T18:56:54.747Z,31
2022-10-04T18:58:54.791Z,25
2022-10-04T19:01:54.788Z,30
2022-10-04T19:03:54.734Z,31
2022-10-04T19:06:54.736Z,37
2022-10-04T19:08:54.743Z,27
2022-10-04T19:11:54.769Z,26
2022-10-04T19:14:54.716Z,28
2022-10-04T19:17:54.780Z,29
2022-10-04T19:19:55.013Z,29
2022-10-04T19:22:54.747Z,30
2022-10-04T19:26:19.266Z,32
2022-10-04T19:27:54.817Z,29
2022-10-04T19:29:54.786Z,33
2022-10-04T19:31:54.875Z,30
2022-10-04T19:34:54.741Z,26
2022-10-04T19:37:54.764Z,32
2022-10-04T19:39:54.761Z,26
2022-10-04T19:41:54.785Z,31
2022-10-04T19:43:54.772Z,35
2022-10-04T19:46:54.729Z,29
2022-10-04T19:48:54.754Z,29
2022-10-04T19:51:54.806Z,30
2022-10-04T19:54:54.733Z,29
2022-10-04T19:56:54.787Z,32
2022-10-04T19:58:54.786Z,29
2022-10-04T20:01:55.016Z,27
2022-10-04T20:03:54.791Z,29
2022-10-04T20:06:54.802Z,29
2022-10-04T20:09:54.773Z,33
2022-10-04T20:11:54.803Z,35
2022-10-04T20:14:54.736Z,28
2022-10-04T20:16:54.876Z,28
2022-10-04T20:19:54.767Z,29
2022-10-04T20:22:54.748Z,26
2022-10-04T20:24:54.751Z,36
2022-10-04T20:27:54.790Z,35
2022-10-04T20:30:54.779Z,26
2022-10-04T20:33:54.739Z,29
2022-10-04T20:35:54.756Z,29
2022-10-04T20:38:54.764Z,29
2022-10-04T20:40:54.772Z,27
2022-10-04T20:43:54.844Z,31
2022-10-04T20:46:54.867Z,30
2022-10-04T20:48:54.810Z,27
2022-10-04T20:51:54.820Z,28
2022-10-04T20:53:54.772Z,25
2022-10-04T20:55:54.747Z,25
2022-10-04T20:57:54.776Z,24
2022-10-04T20:59:54.796Z,23
2022-10-04T21:03:54.818Z,24
2022-10-04T21:06:54.773Z,22
2022-10-04T21:09:54.828Z,22
2022-10-04T21:12:54.784Z,29
2022-10-04T21:15:54.756Z,24
2022-10-04T21:17:54.853Z,29
2022-10-04T21:20:54.752Z,30
2022-10-04T21:22:54.750Z,31
2022-10-04T21:24:54.788Z,34
2022-10-04T21:27:54.791Z,28
2022-10-04T21:29:54.769Z,36
2022-10-04T21:31:54.847Z,60
2022-10-04T21:34:54.981Z,103
2022-10-04T21:36:54.773Z,56
2022-10-04T21:39:54.748Z,40
2022-10-04T21:41:54.769Z,31
2022-10-04T21:44:54.741Z,28
2022-10-04T21:46:54.770Z,39
2022-10-04T21:48:54.778Z,25
2022-10-04T21:51:54.779Z,27
2022-10-04T21:54:54.770Z,32
2022-10-04T21:56:54.790Z,32
2022-10-04T21:59:54.786Z,31
2022-10-04T22:01:54.818Z,33
2022-10-04T22:04:54.762Z,35
2022-10-04T22:06:54.768Z,34
2022-10-04T22:08:54.773Z,35
2022-10-04T22:11:54.769Z,29
2022-10-04T22:13:54.810Z,28
2022-10-04T22:16:54.845Z,54
2022-10-04T22:20:55.001Z,31
2022-10-04T22:23:54.782Z,40
2022-10-04T22:25:54.782Z,30
2022-10-04T22:28:54.795Z,27
2022-10-04T22:32:54.808Z,27
2022-10-04T22:34:54.827Z,30
2022-10-04T22:36:54.923Z,29
2022-10-04T22:39:54.782Z,36
2022-10-04T22:42:54.790Z,28
2022-10-04T22:44:54.798Z,31
2022-10-04T22:47:54.782Z,30
2022-10-04T22:50:54.800Z,31
2022-10-04T22:52:54.792Z,32
2022-10-04T22:55:55.000Z,29
2022-10-04T22:58:54.778Z,27
2022-10-04T23:00:54.808Z,28
2022-10-04T23:03:54.843Z,30
2022-10-04T23:06:54.775Z,29
2022-10-04T23:08:54.791Z,39
2022-10-04T23:11:54.802Z,31
2022-10-04T23:14:54.754Z,36
2022-10-04T23:16:54.802Z,38
2022-10-04T23:19:54.773Z,38
2022-10-04T23:22:54.773Z,36
2022-10-04T23:24:54.769Z,37
2022-10-04T23:26:54.794Z,38
2022-10-04T23:28:54.805Z,37
2022-10-04T23:31:54.898Z,37
2022-10-04T23:34:56.742Z,36
2022-10-04T23:36:54.798Z,35
2022-10-04T23:38:54.797Z,34
2022-10-04T23:41:54.885Z,36
2022-10-04T23:44:54.793Z,36
2022-10-04T23:47:54.817Z,36
2022-10-04T23:50:54.786Z,32
2022-10-04T23:52:54.801Z,33
2022-10-04T23:55:54.811Z,34
2022-10-04T23:58:54.805Z,33
